sensor_id;sensor_type;location;lat;lon;timestamp;P1;durP1;ratioP1;P2;durP2;ratioP2
75456;SDS011;64036;48.266;14.192;2023-07-29T00:02:08;2.80;;;1.50;;
75456;SDS011;64036;48.266;14.192;2023-07-29T00:04:33;2.90;;;1.70;;
75456;SDS011;64036;48.266;14.192;2023-07-29T00:06:59;2.90;;;1.70;;
75456;SDS011;64036;48.266;14.192;2023-07-29T00:09:24;2.30;;;1.50;;
75456;SDS011;64036;48.266;14.192;2023-07-29T00:11:50;2.70;;;1.40;;
75456;SDS011;64036;48.266;14.192;2023-07-29T00:14:15;6.30;;;1.60;;
75456;SDS011;64036;48.266;14.192;2023-07-29T00:16:41;2.90;;;1.70;;
75456;SDS011;64036;48.266;14.192;2023-07-29T00:19:08;2.40;;;1.30;;
75456;SDS011;64036;48.266;14.192;2023-07-29T00:21:33;2.70;;;1.50;;
75456;SDS011;64036;48.266;14.192;2023-07-29T00:23:59;2.70;;;1.60;;
75456;SDS011;64036;48.266;14.192;2023-07-29T00:26:27;2.40;;;1.40;;
75456;SDS011;64036;48.266;14.192;2023-07-29T00:28:57;2.60;;;1.60;;
75456;SDS011;64036;48.266;14.192;2023-07-29T00:31:23;2.50;;;1.60;;
75456;SDS011;64036;48.266;14.192;2023-07-29T00:33:48;3.20;;;1.90;;
75456;SDS011;64036;48.266;14.192;2023-07-29T00:36:14;1.80;;;1.30;;
75456;SDS011;64036;48.266;14.192;2023-07-29T00:38:40;2.70;;;1.40;;
75456;SDS011;64036;48.266;14.192;2023-07-29T00:41:07;3.70;;;1.60;;
75456;SDS011;64036;48.266;14.192;2023-07-29T00:43:33;2.30;;;1.40;;
75456;SDS011;64036;48.266;14.192;2023-07-29T00:45:59;2.60;;;1.30;;
75456;SDS011;64036;48.266;14.192;2023-07-29T00:48:26;2.40;;;1.50;;
75456;SDS011;64036;48.266;14.192;2023-07-29T00:50:52;3.50;;;1.20;;
75456;SDS011;64036;48.266;14.192;2023-07-29T00:53:18;2.20;;;1.50;;
75456;SDS011;64036;48.266;14.192;2023-07-29T00:55:43;3.20;;;1.70;;
75456;SDS011;64036;48.266;14.192;2023-07-29T00:58:10;2.80;;;1.40;;
75456;SDS011;64036;48.266;14.192;2023-07-29T01:00:36;2.00;;;1.20;;
75456;SDS011;64036;48.266;14.192;2023-07-29T01:03:02;1.70;;;1.40;;
75456;SDS011;64036;48.266;14.192;2023-07-29T01:05:35;3.30;;;1.80;;
75456;SDS011;64036;48.266;14.192;2023-07-29T01:08:20;2.80;;;1.70;;
75456;SDS011;64036;48.266;14.192;2023-07-29T01:14:04;3.10;;;1.50;;
75456;SDS011;64036;48.266;14.192;2023-07-29T01:16:58;4.10;;;1.70;;
75456;SDS011;64036;48.266;14.192;2023-07-29T01:20:27;1.90;;;1.40;;
75456;SDS011;64036;48.266;14.192;2023-07-29T01:22:36;2.80;;;1.50;;
75456;SDS011;64036;48.266;14.192;2023-07-29T01:25:03;2.10;;;1.20;;
75456;SDS011;64036;48.266;14.192;2023-07-29T01:27:29;2.80;;;1.40;;
75456;SDS011;64036;48.266;14.192;2023-07-29T01:29:57;3.40;;;1.40;;
75456;SDS011;64036;48.266;14.192;2023-07-29T01:32:37;2.50;;;1.70;;
75456;SDS011;64036;48.266;14.192;2023-07-29T01:37:49;1.90;;;1.40;;
75456;SDS011;64036;48.266;14.192;2023-07-29T01:40:22;2.00;;;1.40;;
75456;SDS011;64036;48.266;14.192;2023-07-29T01:42:49;3.60;;;1.80;;
75456;SDS011;64036;48.266;14.192;2023-07-29T01:45:14;2.40;;;1.50;;
75456;SDS011;64036;48.266;14.192;2023-07-29T01:47:40;1.90;;;1.40;;
75456;SDS011;64036;48.266;14.192;2023-07-29T01:50:07;3.80;;;1.60;;
75456;SDS011;64036;48.266;14.192;2023-07-29T01:52:34;2.60;;;1.50;;
75456;SDS011;64036;48.266;14.192;2023-07-29T01:54:59;3.90;;;1.60;;
75456;SDS011;64036;48.266;14.192;2023-07-29T01:57:25;4.10;;;2.00;;
75456;SDS011;64036;48.266;14.192;2023-07-29T01:59:50;3.00;;;1.70;;
75456;SDS011;64036;48.266;14.192;2023-07-29T02:02:16;2.20;;;1.30;;
75456;SDS011;64036;48.266;14.192;2023-07-29T02:04:42;2.10;;;1.40;;
75456;SDS011;64036;48.266;14.192;2023-07-29T02:07:07;3.30;;;1.50;;
75456;SDS011;64036;48.266;14.192;2023-07-29T02:09:33;2.50;;;1.60;;
75456;SDS011;64036;48.266;14.192;2023-07-29T02:11:58;2.90;;;1.80;;
75456;SDS011;64036;48.266;14.192;2023-07-29T02:14:24;2.80;;;1.70;;
75456;SDS011;64036;48.266;14.192;2023-07-29T02:16:49;2.80;;;1.60;;
75456;SDS011;64036;48.266;14.192;2023-07-29T02:19:15;2.50;;;1.50;;
75456;SDS011;64036;48.266;14.192;2023-07-29T02:21:41;2.50;;;1.50;;
75456;SDS011;64036;48.266;14.192;2023-07-29T02:24:07;2.90;;;1.60;;
75456;SDS011;64036;48.266;14.192;2023-07-29T02:26:32;4.00;;;2.30;;
75456;SDS011;64036;48.266;14.192;2023-07-29T02:28:58;2.30;;;1.50;;
75456;SDS011;64036;48.266;14.192;2023-07-29T02:31:24;3.10;;;1.80;;
75456;SDS011;64036;48.266;14.192;2023-07-29T02:33:51;5.80;;;1.40;;
75456;SDS011;64036;48.266;14.192;2023-07-29T02:36:17;2.50;;;1.60;;
75456;SDS011;64036;48.266;14.192;2023-07-29T02:38:43;4.00;;;1.60;;
75456;SDS011;64036;48.266;14.192;2023-07-29T02:41:10;2.70;;;1.60;;
75456;SDS011;64036;48.266;14.192;2023-07-29T02:43:37;2.30;;;1.60;;
75456;SDS011;64036;48.266;14.192;2023-07-29T02:46:03;2.50;;;1.60;;
75456;SDS011;64036;48.266;14.192;2023-07-29T02:48:30;4.40;;;1.70;;
75456;SDS011;64036;48.266;14.192;2023-07-29T02:50:56;2.10;;;1.30;;
75456;SDS011;64036;48.266;14.192;2023-07-29T02:53:22;2.30;;;1.50;;
75456;SDS011;64036;48.266;14.192;2023-07-29T02:55:48;3.70;;;1.90;;
75456;SDS011;64036;48.266;14.192;2023-07-29T02:58:14;3.20;;;1.70;;
75456;SDS011;64036;48.266;14.192;2023-07-29T03:00:40;3.10;;;1.90;;
75456;SDS011;64036;48.266;14.192;2023-07-29T03:03:09;4.20;;;1.80;;
75456;SDS011;64036;48.266;14.192;2023-07-29T03:05:35;3.00;;;1.80;;
75456;SDS011;64036;48.266;14.192;2023-07-29T03:08:01;3.20;;;1.90;;
75456;SDS011;64036;48.266;14.192;2023-07-29T03:10:27;2.60;;;1.70;;
75456;SDS011;64036;48.266;14.192;2023-07-29T03:12:55;3.40;;;1.90;;
75456;SDS011;64036;48.266;14.192;2023-07-29T03:15:25;2.70;;;1.60;;
75456;SDS011;64036;48.266;14.192;2023-07-29T03:17:51;2.20;;;1.60;;
75456;SDS011;64036;48.266;14.192;2023-07-29T03:20:18;3.70;;;1.70;;
75456;SDS011;64036;48.266;14.192;2023-07-29T03:22:45;2.80;;;1.30;;
75456;SDS011;64036;48.266;14.192;2023-07-29T03:25:11;3.00;;;1.70;;
75456;SDS011;64036;48.266;14.192;2023-07-29T03:27:36;3.30;;;1.90;;
75456;SDS011;64036;48.266;14.192;2023-07-29T03:30:03;4.00;;;1.70;;
75456;SDS011;64036;48.266;14.192;2023-07-29T03:32:29;2.80;;;1.80;;
75456;SDS011;64036;48.266;14.192;2023-07-29T03:34:55;2.40;;;1.60;;
75456;SDS011;64036;48.266;14.192;2023-07-29T03:37:21;3.80;;;1.90;;
75456;SDS011;64036;48.266;14.192;2023-07-29T03:39:47;2.80;;;1.90;;
75456;SDS011;64036;48.266;14.192;2023-07-29T03:42:12;4.10;;;2.20;;
75456;SDS011;64036;48.266;14.192;2023-07-29T03:44:38;3.10;;;1.90;;
75456;SDS011;64036;48.266;14.192;2023-07-29T03:47:07;3.60;;;1.70;;
75456;SDS011;64036;48.266;14.192;2023-07-29T03:49:33;3.10;;;2.00;;
75456;SDS011;64036;48.266;14.192;2023-07-29T03:51:58;3.20;;;1.80;;
75456;SDS011;64036;48.266;14.192;2023-07-29T03:54:24;2.70;;;1.70;;
75456;SDS011;64036;48.266;14.192;2023-07-29T03:56:50;2.90;;;1.80;;
75456;SDS011;64036;48.266;14.192;2023-07-29T03:59:16;3.10;;;1.70;;
75456;SDS011;64036;48.266;14.192;2023-07-29T04:01:42;2.80;;;1.60;;
75456;SDS011;64036;48.266;14.192;2023-07-29T04:04:08;4.00;;;1.90;;
75456;SDS011;64036;48.266;14.192;2023-07-29T04:06:33;3.00;;;1.90;;
75456;SDS011;64036;48.266;14.192;2023-07-29T04:08:59;3.60;;;2.00;;
75456;SDS011;64036;48.266;14.192;2023-07-29T04:11:25;3.80;;;2.10;;
75456;SDS011;64036;48.266;14.192;2023-07-29T04:13:51;3.20;;;2.10;;
75456;SDS011;64036;48.266;14.192;2023-07-29T04:16:16;3.60;;;1.80;;
75456;SDS011;64036;48.266;14.192;2023-07-29T04:18:42;3.20;;;1.90;;
75456;SDS011;64036;48.266;14.192;2023-07-29T04:21:08;5.20;;;2.20;;
75456;SDS011;64036;48.266;14.192;2023-07-29T04:23:34;3.00;;;1.70;;
75456;SDS011;64036;48.266;14.192;2023-07-29T04:26:00;6.20;;;2.00;;
75456;SDS011;64036;48.266;14.192;2023-07-29T04:28:26;2.40;;;1.50;;
75456;SDS011;64036;48.266;14.192;2023-07-29T04:30:51;6.50;;;1.80;;
75456;SDS011;64036;48.266;14.192;2023-07-29T04:33:17;3.20;;;1.90;;
75456;SDS011;64036;48.266;14.192;2023-07-29T04:35:43;3.60;;;1.80;;
75456;SDS011;64036;48.266;14.192;2023-07-29T04:38:08;4.40;;;1.90;;
75456;SDS011;64036;48.266;14.192;2023-07-29T04:40:34;3.70;;;1.90;;
75456;SDS011;64036;48.266;14.192;2023-07-29T04:43:02;6.40;;;2.00;;
75456;SDS011;64036;48.266;14.192;2023-07-29T04:45:29;4.00;;;2.00;;
75456;SDS011;64036;48.266;14.192;2023-07-29T04:47:55;4.50;;;1.70;;
75456;SDS011;64036;48.266;14.192;2023-07-29T04:50:21;3.70;;;1.70;;
75456;SDS011;64036;48.266;14.192;2023-07-29T04:52:47;2.50;;;1.60;;
75456;SDS011;64036;48.266;14.192;2023-07-29T04:55:12;2.90;;;1.80;;
75456;SDS011;64036;48.266;14.192;2023-07-29T04:57:38;3.00;;;1.80;;
75456;SDS011;64036;48.266;14.192;2023-07-29T05:00:04;3.10;;;1.70;;
75456;SDS011;64036;48.266;14.192;2023-07-29T05:02:30;4.00;;;1.50;;
75456;SDS011;64036;48.266;14.192;2023-07-29T05:04:55;3.20;;;1.60;;
75456;SDS011;64036;48.266;14.192;2023-07-29T05:07:21;2.80;;;1.80;;
75456;SDS011;64036;48.266;14.192;2023-07-29T05:09:48;4.60;;;1.80;;
75456;SDS011;64036;48.266;14.192;2023-07-29T05:12:14;2.50;;;1.60;;
75456;SDS011;64036;48.266;14.192;2023-07-29T05:14:39;3.90;;;1.90;;
75456;SDS011;64036;48.266;14.192;2023-07-29T05:17:05;2.70;;;1.80;;
75456;SDS011;64036;48.266;14.192;2023-07-29T05:19:31;4.30;;;2.10;;
75456;SDS011;64036;48.266;14.192;2023-07-29T05:21:56;3.40;;;1.80;;
75456;SDS011;64036;48.266;14.192;2023-07-29T05:24:23;1.90;;;1.60;;
75456;SDS011;64036;48.266;14.192;2023-07-29T05:26:49;2.40;;;1.70;;
75456;SDS011;64036;48.266;14.192;2023-07-29T05:29:15;2.40;;;1.70;;
75456;SDS011;64036;48.266;14.192;2023-07-29T05:31:40;3.50;;;1.80;;
75456;SDS011;64036;48.266;14.192;2023-07-29T05:34:06;2.70;;;1.70;;
75456;SDS011;64036;48.266;14.192;2023-07-29T05:36:33;3.00;;;1.60;;
75456;SDS011;64036;48.266;14.192;2023-07-29T05:38:59;3.50;;;1.70;;
75456;SDS011;64036;48.266;14.192;2023-07-29T05:41:25;3.10;;;1.80;;
75456;SDS011;64036;48.266;14.192;2023-07-29T05:43:53;4.20;;;1.80;;
75456;SDS011;64036;48.266;14.192;2023-07-29T05:46:18;2.80;;;1.50;;
75456;SDS011;64036;48.266;14.192;2023-07-29T05:48:44;1.30;;;1.00;;
75456;SDS011;64036;48.266;14.192;2023-07-29T05:51:09;1.80;;;1.50;;
75456;SDS011;64036;48.266;14.192;2023-07-29T05:53:35;2.50;;;1.30;;
75456;SDS011;64036;48.266;14.192;2023-07-29T05:56:01;2.40;;;1.50;;
75456;SDS011;64036;48.266;14.192;2023-07-29T05:58:26;1.40;;;1.30;;
75456;SDS011;64036;48.266;14.192;2023-07-29T06:00:52;1.60;;;1.30;;
75456;SDS011;64036;48.266;14.192;2023-07-29T06:03:17;2.80;;;1.60;;
75456;SDS011;64036;48.266;14.192;2023-07-29T06:05:43;1.90;;;1.40;;
75456;SDS011;64036;48.266;14.192;2023-07-29T06:08:09;1.60;;;1.20;;
75456;SDS011;64036;48.266;14.192;2023-07-29T06:10:34;1.30;;;1.20;;
75456;SDS011;64036;48.266;14.192;2023-07-29T06:13:00;1.60;;;1.20;;
75456;SDS011;64036;48.266;14.192;2023-07-29T06:15:25;1.90;;;1.20;;
75456;SDS011;64036;48.266;14.192;2023-07-29T06:17:51;1.40;;;1.10;;
75456;SDS011;64036;48.266;14.192;2023-07-29T06:20:17;1.10;;;1.00;;
75456;SDS011;64036;48.266;14.192;2023-07-29T06:22:42;2.50;;;1.20;;
75456;SDS011;64036;48.266;14.192;2023-07-29T06:25:08;1.50;;;1.30;;
75456;SDS011;64036;48.266;14.192;2023-07-29T06:27:34;1.50;;;0.90;;
75456;SDS011;64036;48.266;14.192;2023-07-29T06:29:59;1.30;;;1.00;;
75456;SDS011;64036;48.266;14.192;2023-07-29T06:32:26;2.50;;;1.10;;
75456;SDS011;64036;48.266;14.192;2023-07-29T06:34:51;1.10;;;1.00;;
75456;SDS011;64036;48.266;14.192;2023-07-29T06:37:19;2.60;;;1.10;;
75456;SDS011;64036;48.266;14.192;2023-07-29T06:39:45;1.60;;;1.20;;
75456;SDS011;64036;48.266;14.192;2023-07-29T06:42:11;1.50;;;1.10;;
75456;SDS011;64036;48.266;14.192;2023-07-29T06:44:37;1.90;;;1.20;;
75456;SDS011;64036;48.266;14.192;2023-07-29T06:47:02;2.60;;;1.30;;
75456;SDS011;64036;48.266;14.192;2023-07-29T06:49:28;1.90;;;1.10;;
75456;SDS011;64036;48.266;14.192;2023-07-29T06:51:53;3.00;;;1.00;;
75456;SDS011;64036;48.266;14.192;2023-07-29T06:54:24;1.60;;;1.10;;
75456;SDS011;64036;48.266;14.192;2023-07-29T06:56:51;1.20;;;1.00;;
75456;SDS011;64036;48.266;14.192;2023-07-29T06:59:16;2.00;;;1.20;;
75456;SDS011;64036;48.266;14.192;2023-07-29T07:01:42;1.90;;;1.20;;
75456;SDS011;64036;48.266;14.192;2023-07-29T07:04:08;1.80;;;1.30;;
75456;SDS011;64036;48.266;14.192;2023-07-29T07:06:33;2.40;;;1.00;;
75456;SDS011;64036;48.266;14.192;2023-07-29T07:08:59;1.70;;;1.20;;
75456;SDS011;64036;48.266;14.192;2023-07-29T07:11:24;2.00;;;1.20;;
75456;SDS011;64036;48.266;14.192;2023-07-29T07:13:50;1.30;;;1.00;;
75456;SDS011;64036;48.266;14.192;2023-07-29T07:16:16;1.50;;;1.10;;
75456;SDS011;64036;48.266;14.192;2023-07-29T07:18:41;1.10;;;1.00;;
75456;SDS011;64036;48.266;14.192;2023-07-29T07:21:07;1.10;;;1.00;;
75456;SDS011;64036;48.266;14.192;2023-07-29T07:23:32;1.80;;;1.20;;
75456;SDS011;64036;48.266;14.192;2023-07-29T07:25:58;1.60;;;1.00;;
75456;SDS011;64036;48.266;14.192;2023-07-29T07:28:23;2.10;;;0.90;;
75456;SDS011;64036;48.266;14.192;2023-07-29T07:30:49;1.40;;;1.00;;
75456;SDS011;64036;48.266;14.192;2023-07-29T07:33:14;1.10;;;0.90;;
75456;SDS011;64036;48.266;14.192;2023-07-29T07:35:40;2.40;;;1.00;;
75456;SDS011;64036;48.266;14.192;2023-07-29T07:38:07;1.20;;;1.10;;
75456;SDS011;64036;48.266;14.192;2023-07-29T07:40:35;1.30;;;1.10;;
75456;SDS011;64036;48.266;14.192;2023-07-29T07:43:01;1.90;;;1.10;;
75456;SDS011;64036;48.266;14.192;2023-07-29T07:45:27;1.50;;;1.00;;
75456;SDS011;64036;48.266;14.192;2023-07-29T07:47:53;1.00;;;0.90;;
75456;SDS011;64036;48.266;14.192;2023-07-29T07:50:19;1.20;;;0.90;;
75456;SDS011;64036;48.266;14.192;2023-07-29T07:52:45;0.90;;;0.90;;
75456;SDS011;64036;48.266;14.192;2023-07-29T07:55:11;1.60;;;1.00;;
75456;SDS011;64036;48.266;14.192;2023-07-29T07:57:37;1.10;;;0.90;;
75456;SDS011;64036;48.266;14.192;2023-07-29T08:00:03;1.80;;;1.20;;
75456;SDS011;64036;48.266;14.192;2023-07-29T08:02:29;1.10;;;0.90;;
75456;SDS011;64036;48.266;14.192;2023-07-29T08:04:55;1.50;;;1.00;;
75456;SDS011;64036;48.266;14.192;2023-07-29T08:07:21;1.10;;;0.80;;
75456;SDS011;64036;48.266;14.192;2023-07-29T08:09:47;1.00;;;1.00;;
75456;SDS011;64036;48.266;14.192;2023-07-29T08:12:12;2.20;;;1.10;;
75456;SDS011;64036;48.266;14.192;2023-07-29T08:14:38;1.80;;;1.20;;
75456;SDS011;64036;48.266;14.192;2023-07-29T08:17:04;1.10;;;1.00;;
75456;SDS011;64036;48.266;14.192;2023-07-29T08:19:29;0.80;;;0.80;;
75456;SDS011;64036;48.266;14.192;2023-07-29T08:21:55;3.50;;;1.30;;
75456;SDS011;64036;48.266;14.192;2023-07-29T08:24:21;1.40;;;1.10;;
75456;SDS011;64036;48.266;14.192;2023-07-29T08:26:47;1.20;;;1.10;;
75456;SDS011;64036;48.266;14.192;2023-07-29T08:29:12;2.70;;;1.20;;
75456;SDS011;64036;48.266;14.192;2023-07-29T08:31:38;1.90;;;1.30;;
75456;SDS011;64036;48.266;14.192;2023-07-29T08:34:04;2.30;;;1.30;;
75456;SDS011;64036;48.266;14.192;2023-07-29T08:36:30;3.60;;;1.20;;
75456;SDS011;64036;48.266;14.192;2023-07-29T08:38:55;1.70;;;1.10;;
75456;SDS011;64036;48.266;14.192;2023-07-29T08:44:34;2.10;;;1.10;;
75456;SDS011;64036;48.266;14.192;2023-07-29T08:47:02;1.20;;;1.10;;
75456;SDS011;64036;48.266;14.192;2023-07-29T08:49:28;2.80;;;1.30;;
75456;SDS011;64036;48.266;14.192;2023-07-29T08:51:57;2.60;;;1.30;;
75456;SDS011;64036;48.266;14.192;2023-07-29T08:54:23;1.20;;;1.00;;
75456;SDS011;64036;48.266;14.192;2023-07-29T08:56:50;1.30;;;0.90;;
75456;SDS011;64036;48.266;14.192;2023-07-29T08:59:15;1.40;;;1.20;;
75456;SDS011;64036;48.266;14.192;2023-07-29T09:01:44;1.20;;;1.00;;
75456;SDS011;64036;48.266;14.192;2023-07-29T09:04:10;1.30;;;1.20;;
75456;SDS011;64036;48.266;14.192;2023-07-29T09:06:36;1.20;;;1.10;;
75456;SDS011;64036;48.266;14.192;2023-07-29T09:09:04;1.20;;;1.00;;
75456;SDS011;64036;48.266;14.192;2023-07-29T09:11:31;2.70;;;1.20;;
75456;SDS011;64036;48.266;14.192;2023-07-29T09:13:57;1.80;;;1.20;;
75456;SDS011;64036;48.266;14.192;2023-07-29T09:16:24;1.20;;;1.10;;
75456;SDS011;64036;48.266;14.192;2023-07-29T09:18:51;2.30;;;1.30;;
75456;SDS011;64036;48.266;14.192;2023-07-29T09:21:22;1.60;;;1.30;;
75456;SDS011;64036;48.266;14.192;2023-07-29T09:23:50;2.70;;;1.30;;
75456;SDS011;64036;48.266;14.192;2023-07-29T09:26:26;1.40;;;1.10;;
75456;SDS011;64036;48.266;14.192;2023-07-29T09:28:54;1.60;;;1.10;;
75456;SDS011;64036;48.266;14.192;2023-07-29T09:31:22;1.20;;;1.10;;
75456;SDS011;64036;48.266;14.192;2023-07-29T09:33:50;1.90;;;1.20;;
75456;SDS011;64036;48.266;14.192;2023-07-29T09:36:22;1.50;;;1.30;;
75456;SDS011;64036;48.266;14.192;2023-07-29T09:38:48;3.10;;;1.30;;
75456;SDS011;64036;48.266;14.192;2023-07-29T09:41:15;1.30;;;1.10;;
75456;SDS011;64036;48.266;14.192;2023-07-29T09:43:41;1.50;;;1.20;;
75456;SDS011;64036;48.266;14.192;2023-07-29T09:46:06;4.10;;;1.40;;
75456;SDS011;64036;48.266;14.192;2023-07-29T09:48:36;2.40;;;1.40;;
75456;SDS011;64036;48.266;14.192;2023-07-29T09:51:13;1.80;;;1.40;;
75456;SDS011;64036;48.266;14.192;2023-07-29T09:53:45;1.70;;;1.30;;
75456;SDS011;64036;48.266;14.192;2023-07-29T09:56:12;3.60;;;1.50;;
75456;SDS011;64036;48.266;14.192;2023-07-29T09:58:39;4.70;;;1.60;;
75456;SDS011;64036;48.266;14.192;2023-07-29T10:01:08;2.60;;;1.70;;
75456;SDS011;64036;48.266;14.192;2023-07-29T10:03:34;3.60;;;1.60;;
75456;SDS011;64036;48.266;14.192;2023-07-29T10:06:02;2.20;;;1.50;;
75456;SDS011;64036;48.266;14.192;2023-07-29T10:08:30;2.30;;;1.60;;
75456;SDS011;64036;48.266;14.192;2023-07-29T10:11:05;2.20;;;1.60;;
75456;SDS011;64036;48.266;14.192;2023-07-29T10:13:33;2.10;;;1.60;;
75456;SDS011;64036;48.266;14.192;2023-07-29T10:15:59;3.50;;;1.60;;
75456;SDS011;64036;48.266;14.192;2023-07-29T10:18:29;4.50;;;1.70;;
75456;SDS011;64036;48.266;14.192;2023-07-29T10:20:57;3.70;;;1.70;;
75456;SDS011;64036;48.266;14.192;2023-07-29T10:23:29;2.80;;;1.80;;
75456;SDS011;64036;48.266;14.192;2023-07-29T10:26:05;2.70;;;1.70;;
75456;SDS011;64036;48.266;14.192;2023-07-29T10:28:32;3.70;;;1.60;;
75456;SDS011;64036;48.266;14.192;2023-07-29T10:30:59;2.50;;;1.60;;
75456;SDS011;64036;48.266;14.192;2023-07-29T10:33:26;3.00;;;1.70;;
75456;SDS011;64036;48.266;14.192;2023-07-29T10:35:53;2.40;;;1.50;;
75456;SDS011;64036;48.266;14.192;2023-07-29T10:38:21;2.20;;;1.50;;
75456;SDS011;64036;48.266;14.192;2023-07-29T10:40:52;3.40;;;1.70;;
75456;SDS011;64036;48.266;14.192;2023-07-29T10:43:36;2.90;;;1.80;;
75456;SDS011;64036;48.266;14.192;2023-07-29T10:46:20;2.80;;;1.60;;
75456;SDS011;64036;48.266;14.192;2023-07-29T10:51:29;3.90;;;1.80;;
75456;SDS011;64036;48.266;14.192;2023-07-29T10:54:13;2.70;;;1.80;;
75456;SDS011;64036;48.266;14.192;2023-07-29T10:56:46;3.10;;;2.10;;
75456;SDS011;64036;48.266;14.192;2023-07-29T11:01:45;4.10;;;1.90;;
75456;SDS011;64036;48.266;14.192;2023-07-29T11:04:28;2.30;;;1.60;;
75456;SDS011;64036;48.266;14.192;2023-07-29T11:18:00;2.20;;;1.50;;
75456;SDS011;64036;48.266;14.192;2023-07-29T11:20:31;2.70;;;1.60;;
75456;SDS011;64036;48.266;14.192;2023-07-29T11:23:00;2.00;;;1.60;;
75456;SDS011;64036;48.266;14.192;2023-07-29T11:25:29;4.30;;;1.70;;
75456;SDS011;64036;48.266;14.192;2023-07-29T11:27:57;2.70;;;1.60;;
75456;SDS011;64036;48.266;14.192;2023-07-29T11:30:25;3.50;;;1.70;;
75456;SDS011;64036;48.266;14.192;2023-07-29T11:32:55;2.50;;;1.60;;
75456;SDS011;64036;48.266;14.192;2023-07-29T11:35:21;2.70;;;1.60;;
75456;SDS011;64036;48.266;14.192;2023-07-29T11:37:48;3.00;;;1.70;;
75456;SDS011;64036;48.266;14.192;2023-07-29T11:40:20;3.10;;;1.80;;
75456;SDS011;64036;48.266;14.192;2023-07-29T11:42:48;3.10;;;1.70;;
75456;SDS011;64036;48.266;14.192;2023-07-29T11:45:19;2.50;;;1.70;;
75456;SDS011;64036;48.266;14.192;2023-07-29T11:47:46;2.90;;;1.80;;
75456;SDS011;64036;48.266;14.192;2023-07-29T11:50:13;3.90;;;1.70;;
75456;SDS011;64036;48.266;14.192;2023-07-29T11:52:41;2.00;;;1.60;;
75456;SDS011;64036;48.266;14.192;2023-07-29T11:55:08;2.20;;;1.70;;
75456;SDS011;64036;48.266;14.192;2023-07-29T11:57:36;2.40;;;1.60;;
75456;SDS011;64036;48.266;14.192;2023-07-29T12:00:04;2.60;;;1.80;;
75456;SDS011;64036;48.266;14.192;2023-07-29T12:02:40;4.30;;;1.70;;
75456;SDS011;64036;48.266;14.192;2023-07-29T12:05:08;4.10;;;1.70;;
75456;SDS011;64036;48.266;14.192;2023-07-29T12:07:35;2.70;;;1.70;;
75456;SDS011;64036;48.266;14.192;2023-07-29T12:10:02;2.90;;;1.60;;
75456;SDS011;64036;48.266;14.192;2023-07-29T12:12:28;2.60;;;1.60;;
75456;SDS011;64036;48.266;14.192;2023-07-29T12:14:54;2.20;;;1.60;;
75456;SDS011;64036;48.266;14.192;2023-07-29T12:17:20;2.60;;;1.60;;
75456;SDS011;64036;48.266;14.192;2023-07-29T12:19:46;3.20;;;1.90;;
75456;SDS011;64036;48.266;14.192;2023-07-29T12:22:11;2.30;;;1.60;;
75456;SDS011;64036;48.266;14.192;2023-07-29T12:24:39;2.00;;;1.70;;
75456;SDS011;64036;48.266;14.192;2023-07-29T12:27:09;2.50;;;1.50;;
75456;SDS011;64036;48.266;14.192;2023-07-29T12:29:40;3.00;;;1.80;;
75456;SDS011;64036;48.266;14.192;2023-07-29T12:34:32;2.50;;;1.60;;
75456;SDS011;64036;48.266;14.192;2023-07-29T12:36:59;2.70;;;1.70;;
75456;SDS011;64036;48.266;14.192;2023-07-29T12:39:35;2.60;;;1.50;;
75456;SDS011;64036;48.266;14.192;2023-07-29T12:42:06;2.60;;;1.60;;
75456;SDS011;64036;48.266;14.192;2023-07-29T12:44:33;3.30;;;1.80;;
75456;SDS011;64036;48.266;14.192;2023-07-29T12:47:01;3.40;;;1.90;;
75456;SDS011;64036;48.266;14.192;2023-07-29T12:49:31;2.50;;;1.50;;
75456;SDS011;64036;48.266;14.192;2023-07-29T12:51:58;3.10;;;1.50;;
75456;SDS011;64036;48.266;14.192;2023-07-29T12:54:24;1.80;;;1.50;;
75456;SDS011;64036;48.266;14.192;2023-07-29T12:56:50;2.90;;;1.70;;
75456;SDS011;64036;48.266;14.192;2023-07-29T12:59:15;2.60;;;1.60;;
75456;SDS011;64036;48.266;14.192;2023-07-29T13:01:41;3.30;;;1.70;;
75456;SDS011;64036;48.266;14.192;2023-07-29T13:04:07;2.50;;;1.50;;
75456;SDS011;64036;48.266;14.192;2023-07-29T13:06:32;2.50;;;1.80;;
75456;SDS011;64036;48.266;14.192;2023-07-29T13:08:58;2.40;;;1.70;;
75456;SDS011;64036;48.266;14.192;2023-07-29T13:11:23;1.80;;;1.40;;
75456;SDS011;64036;48.266;14.192;2023-07-29T13:13:49;2.00;;;1.70;;
75456;SDS011;64036;48.266;14.192;2023-07-29T13:16:15;2.40;;;1.50;;
75456;SDS011;64036;48.266;14.192;2023-07-29T13:18:41;2.60;;;1.70;;
75456;SDS011;64036;48.266;14.192;2023-07-29T13:21:08;2.60;;;1.80;;
75456;SDS011;64036;48.266;14.192;2023-07-29T13:23:34;2.10;;;1.50;;
75456;SDS011;64036;48.266;14.192;2023-07-29T13:26:00;3.00;;;1.80;;
75456;SDS011;64036;48.266;14.192;2023-07-29T13:28:26;2.40;;;1.50;;
75456;SDS011;64036;48.266;14.192;2023-07-29T13:30:51;2.20;;;1.50;;
75456;SDS011;64036;48.266;14.192;2023-07-29T13:33:17;2.40;;;1.60;;
75456;SDS011;64036;48.266;14.192;2023-07-29T13:35:43;2.80;;;1.60;;
75456;SDS011;64036;48.266;14.192;2023-07-29T13:38:08;2.30;;;1.60;;
75456;SDS011;64036;48.266;14.192;2023-07-29T13:40:34;2.90;;;1.60;;
75456;SDS011;64036;48.266;14.192;2023-07-29T13:43:00;4.90;;;1.80;;
75456;SDS011;64036;48.266;14.192;2023-07-29T13:45:26;2.00;;;1.50;;
75456;SDS011;64036;48.266;14.192;2023-07-29T13:47:51;2.40;;;1.50;;
75456;SDS011;64036;48.266;14.192;2023-07-29T13:50:17;3.20;;;1.60;;
75456;SDS011;64036;48.266;14.192;2023-07-29T13:52:43;2.90;;;1.40;;
75456;SDS011;64036;48.266;14.192;2023-07-29T13:55:09;4.20;;;1.70;;
75456;SDS011;64036;48.266;14.192;2023-07-29T13:57:37;2.10;;;1.30;;
75456;SDS011;64036;48.266;14.192;2023-07-29T14:00:05;4.90;;;1.40;;
75456;SDS011;64036;48.266;14.192;2023-07-29T14:02:31;2.00;;;1.40;;
75456;SDS011;64036;48.266;14.192;2023-07-29T14:04:57;2.10;;;1.30;;
75456;SDS011;64036;48.266;14.192;2023-07-29T14:07:23;2.20;;;1.40;;
75456;SDS011;64036;48.266;14.192;2023-07-29T14:09:48;3.70;;;1.40;;
75456;SDS011;64036;48.266;14.192;2023-07-29T14:12:14;5.80;;;1.60;;
75456;SDS011;64036;48.266;14.192;2023-07-29T14:14:41;2.20;;;1.20;;
75456;SDS011;64036;48.266;14.192;2023-07-29T14:17:07;4.20;;;1.40;;
75456;SDS011;64036;48.266;14.192;2023-07-29T14:19:37;3.70;;;1.40;;
75456;SDS011;64036;48.266;14.192;2023-07-29T14:22:03;3.80;;;1.40;;
75456;SDS011;64036;48.266;14.192;2023-07-29T14:24:29;3.10;;;1.20;;
75456;SDS011;64036;48.266;14.192;2023-07-29T14:26:54;5.30;;;1.40;;
75456;SDS011;64036;48.266;14.192;2023-07-29T14:29:20;4.40;;;1.30;;
75456;SDS011;64036;48.266;14.192;2023-07-29T14:31:45;3.20;;;1.50;;
75456;SDS011;64036;48.266;14.192;2023-07-29T14:34:11;4.40;;;1.40;;
75456;SDS011;64036;48.266;14.192;2023-07-29T14:36:37;2.80;;;1.30;;
75456;SDS011;64036;48.266;14.192;2023-07-29T14:39:02;2.20;;;1.50;;
75456;SDS011;64036;48.266;14.192;2023-07-29T14:41:29;3.40;;;1.60;;
75456;SDS011;64036;48.266;14.192;2023-07-29T14:43:55;2.30;;;1.40;;
75456;SDS011;64036;48.266;14.192;2023-07-29T14:46:21;2.90;;;1.40;;
75456;SDS011;64036;48.266;14.192;2023-07-29T14:48:46;3.20;;;1.30;;
75456;SDS011;64036;48.266;14.192;2023-07-29T14:51:12;3.40;;;1.60;;
75456;SDS011;64036;48.266;14.192;2023-07-29T14:53:39;4.60;;;1.70;;
75456;SDS011;64036;48.266;14.192;2023-07-29T14:56:04;2.80;;;1.60;;
75456;SDS011;64036;48.266;14.192;2023-07-29T14:58:30;4.90;;;1.50;;
75456;SDS011;64036;48.266;14.192;2023-07-29T15:00:56;6.00;;;1.60;;